sensor_id;sensor_type;location;lat;lon;timestamp;pressure;altitude;pressure_sealevel;temperature;humidity
55277;BME280;41136;51.478;-2.610;2023-01-28T00:00:02;102403.33;;;3.73;92.48
55277;BME280;41136;51.478;-2.610;2023-01-28T00:02:27;102406.68;;;3.46;92.81
55277;BME280;41136;51.478;-2.610;2023-01-28T00:04:53;102411.18;;;3.27;94.43
55277;BME280;41136;51.478;-2.610;2023-01-28T00:07:18;102412.22;;;3.27;94.08
55277;BME280;41136;51.478;-2.610;2023-01-28T00:09:44;102407.93;;;2.87;97.11
55277;BME280;41136;51.478;-2.610;2023-01-28T00:12:09;102404.86;;;3.26;96.51
55277;BME280;41136;51.478;-2.610;2023-01-28T00:14:35;102401.87;;;3.46;96.10
55277;BME280;41136;51.478;-2.610;2023-01-28T00:17:00;102411.06;;;3.39;95.26
55277;BME280;41136;51.478;-2.610;2023-01-28T00:19:25;102404.93;;;4.30;93.03
55277;BME280;41136;51.478;-2.610;2023-01-28T00:21:51;102399.44;;;4.74;89.87
55277;BME280;41136;51.478;-2.610;2023-01-28T00:24:16;102399.62;;;4.75;87.30
55277;BME280;41136;51.478;-2.610;2023-01-28T00:26:42;102401.22;;;4.87;86.66
55277;BME280;41136;51.478;-2.610;2023-01-28T00:29:07;102406.45;;;5.64;84.65
55277;BME280;41136;51.478;-2.610;2023-01-28T00:31:32;102413.17;;;5.42;83.12
55277;BME280;41136;51.478;-2.610;2023-01-28T00:33:57;102411.73;;;5.23;81.46
55277;BME280;41136;51.478;-2.610;2023-01-28T00:36:24;102411.07;;;5.73;81.21
55277;BME280;41136;51.478;-2.610;2023-01-28T00:38:49;102415.61;;;5.67;81.08
55277;BME280;41136;51.478;-2.610;2023-01-28T00:41:15;102410.27;;;6.16;80.21
55277;BME280;41136;51.478;-2.610;2023-01-28T00:43:40;102409.39;;;5.49;79.41
55277;BME280;41136;51.478;-2.610;2023-01-28T00:46:06;102402.70;;;6.12;79.04
55277;BME280;41136;51.478;-2.610;2023-01-28T00:48:30;102400.32;;;6.19;78.34
55277;BME280;41136;51.478;-2.610;2023-01-28T00:50:56;102397.95;;;5.85;78.33
55277;BME280;41136;51.478;-2.610;2023-01-28T00:53:21;102400.61;;;6.28;77.31
55277;BME280;41136;51.478;-2.610;2023-01-28T00:55:47;102399.23;;;6.32;77.27
55277;BME280;41136;51.478;-2.610;2023-01-28T00:58:12;102399.11;;;5.74;77.55
55277;BME280;41136;51.478;-2.610;2023-01-28T01:00:39;102401.74;;;5.51;78.62
55277;BME280;41136;51.478;-2.610;2023-01-28T01:03:04;102396.31;;;6.26;77.00
55277;BME280;41136;51.478;-2.610;2023-01-28T01:05:29;102394.21;;;6.24;77.08
55277;BME280;41136;51.478;-2.610;2023-01-28T01:07:55;102394.11;;;6.15;76.49
55277;BME280;41136;51.478;-2.610;2023-01-28T01:10:21;102392.00;;;6.06;75.38
55277;BME280;41136;51.478;-2.610;2023-01-28T01:12:47;102388.98;;;6.08;75.58
55277;BME280;41136;51.478;-2.610;2023-01-28T01:15:12;102378.93;;;5.59;77.13
55277;BME280;41136;51.478;-2.610;2023-01-28T01:17:38;102376.29;;;5.95;76.18
55277;BME280;41136;51.478;-2.610;2023-01-28T01:20:04;102372.23;;;6.53;75.21
55277;BME280;41136;51.478;-2.610;2023-01-28T01:22:31;102366.58;;;6.57;73.62
55277;BME280;41136;51.478;-2.610;2023-01-28T01:24:54;102370.09;;;6.76;72.67
55277;BME280;41136;51.478;-2.610;2023-01-28T01:27:19;102364.90;;;6.53;72.26
55277;BME280;41136;51.478;-2.610;2023-01-28T01:29:45;102361.08;;;6.03;72.11
55277;BME280;41136;51.478;-2.610;2023-01-28T01:32:10;102367.62;;;5.29;75.60
55277;BME280;41136;51.478;-2.610;2023-01-28T01:34:35;102362.12;;;5.62;76.76
55277;BME280;41136;51.478;-2.610;2023-01-28T01:37:00;102356.63;;;5.79;75.49
55277;BME280;41136;51.478;-2.610;2023-01-28T01:39:26;102357.72;;;5.78;75.86
55277;BME280;41136;51.478;-2.610;2023-01-28T01:41:51;102354.98;;;5.82;74.85
55277;BME280;41136;51.478;-2.610;2023-01-28T01:46:46;102356.99;;;5.88;74.50
55277;BME280;41136;51.478;-2.610;2023-01-28T01:49:14;102361.40;;;5.91;74.27
55277;BME280;41136;51.478;-2.610;2023-01-28T01:51:35;102362.63;;;6.20;74.12
55277;BME280;41136;51.478;-2.610;2023-01-28T01:53:59;102366.12;;;6.40;72.66
55277;BME280;41136;51.478;-2.610;2023-01-28T01:56:29;102365.92;;;6.76;72.52
55277;BME280;41136;51.478;-2.610;2023-01-28T01:58:52;102363.56;;;6.47;73.07
55277;BME280;41136;51.478;-2.610;2023-01-28T02:01:18;102367.77;;;6.52;71.41
55277;BME280;41136;51.478;-2.610;2023-01-28T02:03:46;102369.93;;;6.16;71.89
55277;BME280;41136;51.478;-2.610;2023-01-28T02:06:08;102371.50;;;6.47;70.85
55277;BME280;41136;51.478;-2.610;2023-01-28T02:08:33;102374.52;;;6.49;70.61
55277;BME280;41136;51.478;-2.610;2023-01-28T02:11:01;102379.89;;;6.22;72.32
55277;BME280;41136;51.478;-2.610;2023-01-28T02:13:27;102384.20;;;6.61;72.12
55277;BME280;41136;51.478;-2.610;2023-01-28T02:15:50;102386.44;;;6.24;72.12
55277;BME280;41136;51.478;-2.610;2023-01-28T02:18:15;102384.20;;;6.34;73.09
55277;BME280;41136;51.478;-2.610;2023-01-28T02:20:53;102387.21;;;6.11;73.99
55277;BME280;41136;51.478;-2.610;2023-01-28T02:23:16;102396.55;;;4.86;77.72
55277;BME280;41136;51.478;-2.610;2023-01-28T02:25:42;102403.47;;;5.59;77.40
55277;BME280;41136;51.478;-2.610;2023-01-28T02:28:08;102402.12;;;5.96;75.96
55277;BME280;41136;51.478;-2.610;2023-01-28T02:30:28;102391.46;;;6.47;75.55
55277;BME280;41136;51.478;-2.610;2023-01-28T02:32:52;102393.50;;;5.84;74.93
55277;BME280;41136;51.478;-2.610;2023-01-28T02:35:19;102399.16;;;6.75;72.59
55277;BME280;41136;51.478;-2.610;2023-01-28T02:37:45;102401.16;;;6.56;72.36
55277;BME280;41136;51.478;-2.610;2023-01-28T02:40:09;102396.75;;;6.51;72.03
55277;BME280;41136;51.478;-2.610;2023-01-28T02:42:33;102402.68;;;5.76;73.54
55277;BME280;41136;51.478;-2.610;2023-01-28T02:44:56;102404.18;;;7.28;71.46
55277;BME280;41136;51.478;-2.610;2023-01-28T02:47:21;102404.79;;;6.22;71.25
55277;BME280;41136;51.478;-2.610;2023-01-28T02:49:49;102405.28;;;6.40;72.47
55277;BME280;41136;51.478;-2.610;2023-01-28T02:52:21;102410.51;;;5.79;73.84
55277;BME280;41136;51.478;-2.610;2023-01-28T02:54:41;102414.73;;;5.81;74.38
55277;BME280;41136;51.478;-2.610;2023-01-28T02:57:12;102411.98;;;5.93;73.34
55277;BME280;41136;51.478;-2.610;2023-01-28T02:59:34;102417.65;;;5.57;73.17
55277;BME280;41136;51.478;-2.610;2023-01-28T03:01:58;102415.03;;;5.65;72.59
55277;BME280;41136;51.478;-2.610;2023-01-28T03:04:22;102413.23;;;5.81;72.02
55277;BME280;41136;51.478;-2.610;2023-01-28T03:06:47;102414.35;;;6.29;70.71
55277;BME280;41136;51.478;-2.610;2023-01-28T03:09:11;102417.49;;;6.35;69.99
55277;BME280;41136;51.478;-2.610;2023-01-28T03:11:38;102426.19;;;5.28;70.96
55277;BME280;41136;51.478;-2.610;2023-01-28T03:14:01;102421.17;;;5.61;71.56
55277;BME280;41136;51.478;-2.610;2023-01-28T03:16:26;102415.06;;;5.42;71.08
55277;BME280;41136;51.478;-2.610;2023-01-28T03:18:52;102412.97;;;4.22;74.29
55277;BME280;41136;51.478;-2.610;2023-01-28T03:21:21;102416.98;;;4.65;73.55
55277;BME280;41136;51.478;-2.610;2023-01-28T03:23:47;102420.12;;;5.37;72.62
55277;BME280;41136;51.478;-2.610;2023-01-28T03:26:10;102417.66;;;6.51;70.29
55277;BME280;41136;51.478;-2.610;2023-01-28T03:28:35;102411.47;;;6.00;69.42
55277;BME280;41136;51.478;-2.610;2023-01-28T03:31:03;102405.81;;;6.01;69.62
55277;BME280;41136;51.478;-2.610;2023-01-28T03:33:24;102399.65;;;6.50;67.66
55277;BME280;41136;51.478;-2.610;2023-01-28T03:35:49;102391.33;;;5.95;68.23
55277;BME280;41136;51.478;-2.610;2023-01-28T03:38:15;102391.39;;;6.49;67.08
55277;BME280;41136;51.478;-2.610;2023-01-28T03:40:49;102389.73;;;6.70;65.96
55277;BME280;41136;51.478;-2.610;2023-01-28T03:43:06;102385.73;;;6.80;65.68
55277;BME280;41136;51.478;-2.610;2023-01-28T03:45:31;102381.18;;;6.64;64.87
55277;BME280;41136;51.478;-2.610;2023-01-28T03:47:57;102385.89;;;6.79;65.47
55277;BME280;41136;51.478;-2.610;2023-01-28T03:50:22;102388.10;;;6.70;66.58
55277;BME280;41136;51.478;-2.610;2023-01-28T03:52:47;102382.74;;;6.68;65.96
55277;BME280;41136;51.478;-2.610;2023-01-28T03:55:13;102380.75;;;6.56;66.25
55277;BME280;41136;51.478;-2.610;2023-01-28T03:57:39;102374.09;;;6.47;66.28
55277;BME280;41136;51.478;-2.610;2023-01-28T04:00:04;102365.45;;;7.01;65.49
55277;BME280;41136;51.478;-2.610;2023-01-28T04:02:29;102371.37;;;7.42;64.47
55277;BME280;41136;51.478;-2.610;2023-01-28T04:04:54;102374.41;;;7.16;63.48
55277;BME280;41136;51.478;-2.610;2023-01-28T04:07:20;102364.57;;;6.92;63.00
55277;BME280;41136;51.478;-2.610;2023-01-28T04:09:45;102358.81;;;7.07;63.03
55277;BME280;41136;51.478;-2.610;2023-01-28T04:12:10;102357.97;;;7.32;62.66
55277;BME280;41136;51.478;-2.610;2023-01-28T04:14:36;102364.77;;;7.78;62.94
55277;BME280;41136;51.478;-2.610;2023-01-28T04:17:01;102364.68;;;7.83;62.68
55277;BME280;41136;51.478;-2.610;2023-01-28T04:19:27;102357.72;;;7.44;62.88
55277;BME280;41136;51.478;-2.610;2023-01-28T04:21:52;102354.91;;;7.71;63.36
55277;BME280;41136;51.478;-2.610;2023-01-28T04:24:18;102359.10;;;7.10;62.77
55277;BME280;41136;51.478;-2.610;2023-01-28T04:26:43;102366.63;;;6.59;63.88
55277;BME280;41136;51.478;-2.610;2023-01-28T04:29:09;102361.69;;;7.64;63.86
55277;BME280;41136;51.478;-2.610;2023-01-28T04:31:34;102360.59;;;7.19;63.61
55277;BME280;41136;51.478;-2.610;2023-01-28T04:33:59;102359.66;;;7.01;63.45
55277;BME280;41136;51.478;-2.610;2023-01-28T04:36:25;102363.08;;;7.30;63.65
55277;BME280;41136;51.478;-2.610;2023-01-28T04:38:50;102372.36;;;7.04;63.93
55277;BME280;41136;51.478;-2.610;2023-01-28T04:41:16;102373.05;;;7.07;63.84
55277;BME280;41136;51.478;-2.610;2023-01-28T04:43:41;102385.12;;;6.55;63.36
55277;BME280;41136;51.478;-2.610;2023-01-28T04:46:07;102392.69;;;7.29;64.26
55277;BME280;41136;51.478;-2.610;2023-01-28T04:48:32;102393.81;;;6.94;64.29
55277;BME280;41136;51.478;-2.610;2023-01-28T04:50:57;102391.78;;;6.56;65.89
55277;BME280;41136;51.478;-2.610;2023-01-28T04:53:22;102388.69;;;6.72;65.86
55277;BME280;41136;51.478;-2.610;2023-01-28T04:55:48;102386.91;;;6.83;65.15
55277;BME280;41136;51.478;-2.610;2023-01-28T04:58:13;102390.78;;;6.83;64.90
55277;BME280;41136;51.478;-2.610;2023-01-28T05:00:39;102387.88;;;7.21;65.11
55277;BME280;41136;51.478;-2.610;2023-01-28T05:03:04;102391.48;;;6.91;65.28
55277;BME280;41136;51.478;-2.610;2023-01-28T05:05:30;102379.06;;;7.62;64.09
55277;BME280;41136;51.478;-2.610;2023-01-28T05:07:56;102375.24;;;7.45;64.79
55277;BME280;41136;51.478;-2.610;2023-01-28T05:10:22;102372.75;;;7.53;64.30
55277;BME280;41136;51.478;-2.610;2023-01-28T05:12:47;102383.65;;;7.04;64.68
55277;BME280;41136;51.478;-2.610;2023-01-28T05:15:12;102385.75;;;7.07;63.98
55277;BME280;41136;51.478;-2.610;2023-01-28T05:21:04;102378.42;;;6.91;62.19
55277;BME280;41136;51.478;-2.610;2023-01-28T05:23:29;102378.02;;;7.37;60.57
55277;BME280;41136;51.478;-2.610;2023-01-28T05:25:54;102373.37;;;7.53;60.52
55277;BME280;41136;51.478;-2.610;2023-01-28T05:28:19;102371.07;;;7.13;60.47
55277;BME280;41136;51.478;-2.610;2023-01-28T05:30:44;102366.81;;;7.88;59.72
55277;BME280;41136;51.478;-2.610;2023-01-28T05:33:09;102377.70;;;8.34;60.17
55277;BME280;41136;51.478;-2.610;2023-01-28T05:35:35;102382.74;;;8.05;60.59
55277;BME280;41136;51.478;-2.610;2023-01-28T05:38:01;102378.65;;;7.63;61.41
55277;BME280;41136;51.478;-2.610;2023-01-28T05:40:27;102374.67;;;7.36;62.00
55277;BME280;41136;51.478;-2.610;2023-01-28T05:42:52;102380.30;;;6.95;62.66
55277;BME280;41136;51.478;-2.610;2023-01-28T05:45:17;102380.95;;;6.92;63.70
55277;BME280;41136;51.478;-2.610;2023-01-28T05:47:42;102381.83;;;7.14;63.91
55277;BME280;41136;51.478;-2.610;2023-01-28T05:50:09;102383.28;;;7.04;62.83
55277;BME280;41136;51.478;-2.610;2023-01-28T05:52:33;102383.63;;;7.50;62.22
55277;BME280;41136;51.478;-2.610;2023-01-28T05:54:58;102386.96;;;7.66;61.69
55277;BME280;41136;51.478;-2.610;2023-01-28T05:57:24;102388.39;;;7.39;62.30
55277;BME280;41136;51.478;-2.610;2023-01-28T05:59:50;102389.27;;;7.54;62.28
55277;BME280;41136;51.478;-2.610;2023-01-28T06:02:15;102390.50;;;7.59;62.56
55277;BME280;41136;51.478;-2.610;2023-01-28T06:04:40;102385.64;;;8.07;61.06
55277;BME280;41136;51.478;-2.610;2023-01-28T06:07:06;102389.18;;;7.40;60.95
55277;BME280;41136;51.478;-2.610;2023-01-28T06:09:31;102385.44;;;7.61;61.02
55277;BME280;41136;51.478;-2.610;2023-01-28T06:11:56;102389.94;;;7.13;61.57
55277;BME280;41136;51.478;-2.610;2023-01-28T06:14:22;102396.00;;;7.06;62.11
55277;BME280;41136;51.478;-2.610;2023-01-28T06:16:47;102399.54;;;6.33;63.51
55277;BME280;41136;51.478;-2.610;2023-01-28T06:19:13;102389.51;;;6.93;63.22
55277;BME280;41136;51.478;-2.610;2023-01-28T06:21:38;102387.01;;;6.94;62.85
55277;BME280;41136;51.478;-2.610;2023-01-28T06:24:04;102390.25;;;6.66;62.58
55277;BME280;41136;51.478;-2.610;2023-01-28T06:26:30;102387.90;;;6.87;63.38
55277;BME280;41136;51.478;-2.610;2023-01-28T06:28:55;102378.61;;;7.52;62.71
55277;BME280;41136;51.478;-2.610;2023-01-28T06:31:21;102385.02;;;7.72;63.12
55277;BME280;41136;51.478;-2.610;2023-01-28T06:33:46;102386.07;;;7.52;61.86
55277;BME280;41136;51.478;-2.610;2023-01-28T06:36:12;102399.34;;;6.78;63.19
55277;BME280;41136;51.478;-2.610;2023-01-28T06:38:37;102399.53;;;7.07;64.66
55277;BME280;41136;51.478;-2.610;2023-01-28T06:41:02;102399.13;;;7.00;63.86
55277;BME280;41136;51.478;-2.610;2023-01-28T06:43:27;102396.79;;;7.48;63.25
55277;BME280;41136;51.478;-2.610;2023-01-28T06:45:52;102397.67;;;7.09;62.12
55277;BME280;41136;51.478;-2.610;2023-01-28T06:48:18;102391.80;;;7.44;62.79
55277;BME280;41136;51.478;-2.610;2023-01-28T06:50:45;102395.13;;;6.80;63.22
55277;BME280;41136;51.478;-2.610;2023-01-28T06:53:10;102403.54;;;6.22;64.69
55277;BME280;41136;51.478;-2.610;2023-01-28T06:55:35;102409.13;;;6.02;66.54
55277;BME280;41136;51.478;-2.610;2023-01-28T06:58:01;102406.90;;;5.96;66.85
55277;BME280;41136;51.478;-2.610;2023-01-28T07:00:26;102409.35;;;5.74;68.05
55277;BME280;41136;51.478;-2.610;2023-01-28T07:02:54;102411.90;;;5.46;69.53
55277;BME280;41136;51.478;-2.610;2023-01-28T07:05:17;102410.23;;;5.32;70.13
55277;BME280;41136;51.478;-2.610;2023-01-28T07:07:42;102414.12;;;5.67;70.14
55277;BME280;41136;51.478;-2.610;2023-01-28T07:10:09;102410.11;;;5.56;70.95
55277;BME280;41136;51.478;-2.610;2023-01-28T07:12:33;102413.64;;;5.25;72.02
55277;BME280;41136;51.478;-2.610;2023-01-28T07:14:58;102417.55;;;5.42;72.02
55277;BME280;41136;51.478;-2.610;2023-01-28T07:17:24;102415.43;;;6.19;71.70
55277;BME280;41136;51.478;-2.610;2023-01-28T07:19:49;102413.60;;;5.99;72.58
55277;BME280;41136;51.478;-2.610;2023-01-28T07:22:15;102412.79;;;5.81;72.41
55277;BME280;41136;51.478;-2.610;2023-01-28T07:24:41;102410.61;;;5.38;73.33
55277;BME280;41136;51.478;-2.610;2023-01-28T07:27:06;102406.17;;;5.12;74.86
55277;BME280;41136;51.478;-2.610;2023-01-28T07:29:32;102415.25;;;5.82;73.75
55277;BME280;41136;51.478;-2.610;2023-01-28T07:31:57;102416.11;;;6.05;72.73
55277;BME280;41136;51.478;-2.610;2023-01-28T07:34:22;102415.78;;;6.18;71.03
55277;BME280;41136;51.478;-2.610;2023-01-28T07:36:48;102418.40;;;6.32;70.10
55277;BME280;41136;51.478;-2.610;2023-01-28T07:39:13;102419.29;;;6.22;69.97
55277;BME280;41136;51.478;-2.610;2023-01-28T07:41:39;102419.08;;;6.22;69.67
55277;BME280;41136;51.478;-2.610;2023-01-28T07:44:04;102416.46;;;5.89;69.69
55277;BME280;41136;51.478;-2.610;2023-01-28T07:46:30;102421.68;;;5.83;70.98
55277;BME280;41136;51.478;-2.610;2023-01-28T07:48:55;102423.29;;;5.37;72.17
55277;BME280;41136;51.478;-2.610;2023-01-28T07:51:20;102419.65;;;6.11;70.30
55277;BME280;41136;51.478;-2.610;2023-01-28T07:53:46;102419.18;;;6.32;69.56
55277;BME280;41136;51.478;-2.610;2023-01-28T07:56:11;102417.20;;;6.54;67.89
55277;BME280;41136;51.478;-2.610;2023-01-28T07:58:37;102418.79;;;6.35;68.00
55277;BME280;41136;51.478;-2.610;2023-01-28T08:01:02;102430.30;;;6.35;68.99
55277;BME280;41136;51.478;-2.610;2023-01-28T08:03:28;102434.86;;;5.93;67.92
55277;BME280;41136;51.478;-2.610;2023-01-28T08:05:55;102438.34;;;6.16;68.84
55277;BME280;41136;51.478;-2.610;2023-01-28T08:08:19;102447.58;;;5.98;69.67
55277;BME280;41136;51.478;-2.610;2023-01-28T08:10:44;102449.92;;;6.29;69.18
55277;BME280;41136;51.478;-2.610;2023-01-28T08:13:10;102456.98;;;6.17;70.21
55277;BME280;41136;51.478;-2.610;2023-01-28T08:15:34;102449.11;;;6.39;70.09
55277;BME280;41136;51.478;-2.610;2023-01-28T08:18:00;102455.50;;;5.17;73.01
55277;BME280;41136;51.478;-2.610;2023-01-28T08:20:27;102455.84;;;6.09;73.32
55277;BME280;41136;51.478;-2.610;2023-01-28T08:22:50;102453.46;;;5.71;73.22
55277;BME280;41136;51.478;-2.610;2023-01-28T08:25:16;102458.24;;;5.93;73.69
55277;BME280;41136;51.478;-2.610;2023-01-28T08:27:41;102460.17;;;5.97;73.44
55277;BME280;41136;51.478;-2.610;2023-01-28T08:30:08;102463.76;;;5.77;75.02
55277;BME280;41136;51.478;-2.610;2023-01-28T08:32:32;102460.88;;;5.19;76.35
55277;BME280;41136;51.478;-2.610;2023-01-28T08:34:58;102464.28;;;5.54;77.08
55277;BME280;41136;51.478;-2.610;2023-01-28T08:37:23;102464.28;;;5.33;78.03
55277;BME280;41136;51.478;-2.610;2023-01-28T08:39:49;102467.52;;;6.13;75.63
55277;BME280;41136;51.478;-2.610;2023-01-28T08:42:14;102466.10;;;6.13;74.55
55277;BME280;41136;51.478;-2.610;2023-01-28T08:44:39;102465.24;;;6.28;74.85
55277;BME280;41136;51.478;-2.610;2023-01-28T08:47:05;102469.59;;;6.05;74.93
55277;BME280;41136;51.478;-2.610;2023-01-28T08:49:30;102466.57;;;6.02;75.50
55277;BME280;41136;51.478;-2.610;2023-01-28T08:51:55;102458.66;;;5.88;76.31
55277;BME280;41136;51.478;-2.610;2023-01-28T08:54:21;102457.92;;;6.70;73.77
55277;BME280;41136;51.478;-2.610;2023-01-28T08:56:46;102463.18;;;6.25;73.42
55277;BME280;41136;51.478;-2.610;2023-01-28T08:59:11;102469.07;;;6.08;74.20
55277;BME280;41136;51.478;-2.610;2023-01-28T09:01:37;102478.45;;;5.87;75.33
55277;BME280;41136;51.478;-2.610;2023-01-28T09:04:02;102481.98;;;6.00;74.65
55277;BME280;41136;51.478;-2.610;2023-01-28T09:06:27;102486.38;;;6.29;73.23
55277;BME280;41136;51.478;-2.610;2023-01-28T09:08:56;102477.87;;;6.23;74.33
55277;BME280;41136;51.478;-2.610;2023-01-28T09:11:18;102467.06;;;6.16;74.33
55277;BME280;41136;51.478;-2.610;2023-01-28T09:13:43;102467.41;;;5.68;75.92
55277;BME280;41136;51.478;-2.610;2023-01-28T09:16:09;102475.35;;;6.10;75.71
55277;BME280;41136;51.478;-2.610;2023-01-28T09:18:34;102471.16;;;6.60;72.86
55277;BME280;41136;51.478;-2.610;2023-01-28T09:21:03;102459.34;;;6.43;74.09
55277;BME280;41136;51.478;-2.610;2023-01-28T09:23:25;102452.88;;;6.47;74.34
55277;BME280;41136;51.478;-2.610;2023-01-28T09:25:50;102457.83;;;6.71;73.35
55277;BME280;41136;51.478;-2.610;2023-01-28T09:28:16;102462.45;;;6.01;73.55
55277;BME280;41136;51.478;-2.610;2023-01-28T09:30:41;102457.31;;;6.96;72.75
55277;BME280;41136;51.478;-2.610;2023-01-28T09:33:07;102457.76;;;7.10;72.12
55277;BME280;41136;51.478;-2.610;2023-01-28T09:35:33;102458.49;;;7.00;71.74
55277;BME280;41136;51.478;-2.610;2023-01-28T09:37:58;102460.34;;;7.14;68.90
55277;BME280;41136;51.478;-2.610;2023-01-28T09:40:30;102460.66;;;6.90;69.88
55277;BME280;41136;51.478;-2.610;2023-01-28T09:42:58;102449.72;;;6.58;71.96
55277;BME280;41136;51.478;-2.610;2023-01-28T09:45:17;102439.33;;;7.04;71.20
55277;BME280;41136;51.478;-2.610;2023-01-28T09:47:42;102444.53;;;6.70;71.73
55277;BME280;41136;51.478;-2.610;2023-01-28T09:50:10;102441.26;;;6.61;72.48
55277;BME280;41136;51.478;-2.610;2023-01-28T09:52:34;102435.38;;;6.50;73.30
55277;BME280;41136;51.478;-2.610;2023-01-28T09:55:01;102427.69;;;6.50;72.76
55277;BME280;41136;51.478;-2.610;2023-01-28T09:57:25;102430.38;;;6.77;72.76
55277;BME280;41136;51.478;-2.610;2023-01-28T09:59:47;102423.23;;;6.28;74.70
55277;BME280;41136;51.478;-2.610;2023-01-28T10:02:21;102416.31;;;5.83;76.34
55277;BME280;41136;51.478;-2.610;2023-01-28T10:04:47;102419.21;;;5.92;76.62
55277;BME280;41136;51.478;-2.610;2023-01-28T10:07:15;102412.58;;;6.07;76.51
55277;BME280;41136;51.478;-2.610;2023-01-28T10:09:36;102410.68;;;6.33;75.97
55277;BME280;41136;51.478;-2.610;2023-01-28T10:12:04;102412.76;;;6.23;76.42
55277;BME280;41136;51.478;-2.610;2023-01-28T10:14:26;102416.64;;;6.35;76.10
55277;BME280;41136;51.478;-2.610;2023-01-28T10:16:50;102411.90;;;6.69;75.55
55277;BME280;41136;51.478;-2.610;2023-01-28T10:19:15;102414.61;;;6.62;73.93
55277;BME280;41136;51.478;-2.610;2023-01-28T10:21:41;102421.83;;;6.29;74.62
55277;BME280;41136;51.478;-2.610;2023-01-28T10:24:04;102428.46;;;5.91;76.56
55277;BME280;41136;51.478;-2.610;2023-01-28T10:26:32;102425.16;;;6.39;75.50
55277;BME280;41136;51.478;-2.610;2023-01-28T10:28:56;102417.47;;;6.25;73.42
55277;BME280;41136;51.478;-2.610;2023-01-28T10:31:18;102413.87;;;6.45;74.71
55277;BME280;41136;51.478;-2.610;2023-01-28T10:33:43;102411.30;;;6.75;73.11
55277;BME280;41136;51.478;-2.610;2023-01-28T10:36:09;102413.08;;;5.91;74.75
55277;BME280;41136;51.478;-2.610;2023-01-28T10:38:34;102415.76;;;6.53;75.04
55277;BME280;41136;51.478;-2.610;2023-01-28T10:41:01;102414.33;;;6.89;75.77
55277;BME280;41136;51.478;-2.610;2023-01-28T10:43:28;102417.76;;;6.70;75.18
55277;BME280;41136;51.478;-2.610;2023-01-28T10:45:56;102415.69;;;6.65;73.98
55277;BME280;41136;51.478;-2.610;2023-01-28T10:48:20;102414.58;;;6.35;74.24
55277;BME280;41136;51.478;-2.610;2023-01-28T10:50:49;102416.74;;;6.88;73.73
55277;BME280;41136;51.478;-2.610;2023-01-28T10:53:06;102416.75;;;6.51;74.73
55277;BME280;41136;51.478;-2.610;2023-01-28T10:55:35;102426.77;;;7.34;71.97
55277;BME280;41136;51.478;-2.610;2023-01-28T10:57:57;102431.39;;;6.56;75.39
55277;BME280;41136;51.478;-2.610;2023-01-28T11:00:24;102423.15;;;6.33;76.86
55277;BME280;41136;51.478;-2.610;2023-01-28T11:02:48;102424.31;;;6.01;77.61
55277;BME280;41136;51.478;-2.610;2023-01-28T11:05:16;102427.32;;;6.23;77.47
55277;BME280;41136;51.478;-2.610;2023-01-28T11:07:38;102429.51;;;6.35;77.67
55277;BME280;41136;51.478;-2.610;2023-01-28T11:12:30;102440.51;;;6.31;79.51
55277;BME280;41136;51.478;-2.610;2023-01-28T11:14:55;102442.88;;;5.89;80.73
55277;BME280;41136;51.478;-2.610;2023-01-28T11:17:21;102447.15;;;5.65;81.17
55277;BME280;41136;51.478;-2.610;2023-01-28T11:19:44;102449.67;;;6.03;80.76
55277;BME280;41136;51.478;-2.610;2023-01-28T11:22:20;102448.87;;;6.17;81.28
55277;BME280;41136;51.478;-2.610;2023-01-28T11:24:35;102446.56;;;5.82;81.41
55277;BME280;41136;51.478;-2.610;2023-01-28T11:27:09;102442.08;;;5.96;80.38
55277;BME280;41136;51.478;-2.610;2023-01-28T11:29:29;102442.30;;;5.84;81.03
55277;BME280;41136;51.478;-2.610;2023-01-28T11:31:52;102443.04;;;6.50;79.04
55277;BME280;41136;51.478;-2.610;2023-01-28T11:34:18;102448.75;;;6.17;79.99
55277;BME280;41136;51.478;-2.610;2023-01-28T11:36:49;102443.61;;;5.93;81.91
55277;BME280;41136;51.478;-2.610;2023-01-28T11:39:16;102434.22;;;6.62;80.58
55277;BME280;41136;51.478;-2.610;2023-01-28T11:41:35;102430.73;;;6.02;80.36
55277;BME280;41136;51.478;-2.610;2023-01-28T11:44:00;102428.86;;;6.55;80.15
55277;BME280;41136;51.478;-2.610;2023-01-28T11:48:56;102429.67;;;6.19;80.72
55277;BME280;41136;51.478;-2.610;2023-01-28T11:51:25;102429.58;;;5.77;81.86
55277;BME280;41136;51.478;-2.610;2023-01-28T11:53:48;102428.66;;;5.24;83.15
55277;BME280;41136;51.478;-2.610;2023-01-28T11:56:15;102423.59;;;6.04;83.61
55277;BME280;41136;51.478;-2.610;2023-01-28T11:58:36;102424.15;;;5.62;83.39
55277;BME280;41136;51.478;-2.610;2023-01-28T12:01:01;102420.02;;;5.92;83.91
55277;BME280;41136;51.478;-2.610;2023-01-28T12:03:34;102423.06;;;5.73;84.71
55277;BME280;41136;51.478;-2.610;2023-01-28T12:05:49;102421.71;;;5.58;85.76
55277;BME280;41136;51.478;-2.610;2023-01-28T12:08:17;102419.57;;;5.99;83.77
55277;BME280;41136;51.478;-2.610;2023-01-28T12:10:42;102416.64;;;5.84;84.86
55277;BME280;41136;51.478;-2.610;2023-01-28T12:13:10;102411.20;;;6.19;84.48
55277;BME280;41136;51.478;-2.610;2023-01-28T12:18:04;102414.91;;;5.81;85.34
55277;BME280;41136;51.478;-2.610;2023-01-28T12:20:23;102409.80;;;6.20;84.34
55277;BME280;41136;51.478;-2.610;2023-01-28T12:22:58;102416.84;;;6.54;83.65
55277;BME280;41136;51.478;-2.610;2023-01-28T12:25:19;102420.90;;;7.12;81.87
55277;BME280;41136;51.478;-2.610;2023-01-28T12:27:44;102424.22;;;6.22;82.40
55277;BME280;41136;51.478;-2.610;2023-01-28T12:30:08;102418.55;;;6.75;82.19
55277;BME280;41136;51.478;-2.610;2023-01-28T12:32:35;102407.97;;;7.18;80.56
55277;BME280;41136;51.478;-2.610;2023-01-28T12:35:04;102409.01;;;6.93;80.31
55277;BME280;41136;51.478;-2.610;2023-01-28T12:37:23;102407.05;;;7.38;79.06
55277;BME280;41136;51.478;-2.610;2023-01-28T12:39:50;102405.53;;;7.24;79.22
55277;BME280;41136;51.478;-2.610;2023-01-28T12:42:11;102401.67;;;6.57;81.54
55277;BME280;41136;51.478;-2.610;2023-01-28T12:44:34;102398.01;;;7.16;81.46
55277;BME280;41136;51.478;-2.610;2023-01-28T12:46:59;102400.10;;;6.42;81.74
55277;BME280;41136;51.478;-2.610;2023-01-28T12:49:27;102400.05;;;6.76;81.18
55277;BME280;41136;51.478;-2.610;2023-01-28T12:51:56;102401.22;;;6.69;82.12